Aviation Digital Data Service (ADDS)

Output produced by METARs form (1725 UTC 16 June 2019)
found at http://www.aviationweather.gov/metar/data/
 
UATE 161700Z 33003MPS CAVOK 26/M04 Q1009 R30/0///70 NOSIG RMK QFE755/1007
TAF UATE 161707Z 1618/1718 05005MPS CAVOK TX35/1708Z TN16/1701Z 
     BECMG 1704/1706 12005MPS
       
UATT 161700Z 03002MPS CAVOK 19/03 Q1009 R31/70D NOSIG RMK QFE737/0982
TAF UATT 161700Z 1618/1718 36003MPS 9999 SCT040 TX24/1712Z TN09/1701Z 
     TEMPO 1706/1718 34005MPS BKN030CB
       
UAAA 161700Z 13002MPS 9999 FEW050CB SCT100 18/11 Q1012 R88/65D NOSIG
TAF UAAA 161700Z 1618/1718 16004MPS 9999 SCT050CB BKN100 TX27/1709Z TN16/1701Z 
     TEMPO 1618/1622 5000 BR FU 
     BECMG 1703/1704 04004MPS 
     PROB40 
     TEMPO 1706/1718 TS
       
UACC 161700Z 23005MPS CAVOK 11/04 Q1011 R22/0///70 NOSIG RMK QFE727/0970
TAF UACC 161700Z 1618/1718 20006MPS 9999 SCT011 BKN100 TX20/1710Z TN08/1624Z 
     BECMG 1704/1706 22008MPS SCT040CB BKN100 
     TEMPO 1706/1713 24009G14MPS -SHRA BKN030CB 
     TEMPO 1713/1718 5000 -SHRA BKN020CB 
     PROB40 
     TEMPO 1712/1718 TS
       
UATG 161700Z 26003MPS CAVOK 25/18 Q1009 R32/CLRD70 NOSIG RMK QFE758/1011
TAF UATG 161700Z 1618/1718 VRB03MPS 9999 SCT033CB TX31/1711Z TN20/1701Z 
     TEMPO 1622/1703 02007MPS 
     TEMPO 1706/1712 -TSRA BKN020CB
       
UAAH 161130Z 23005MPS 9999 FEW040CB BKN048 20/06 Q1010 NOSIG RMK QFE719/0959
TAF UAAH 161102Z 1612/1621 21008MPS 9999 SCT030CB BKN100 
     TEMPO 1612/1615 -SHRA
       
UAKK 161700Z 17003MPS CAVOK 08/06 Q1013 R23/0///70 NOSIG RMK QFE713/0951
TAF UAKK 161700Z 1618/1718 VRB02MPS 9999 SCT040 BKN100 TX22/1711Z TN03/1622Z 
     TEMPO 1620/1702 2000 BR BKN004 
     BECMG 1702/1704 20005MPS SCT030CB 
     TEMPO 1706/1714 22008MPS BKN030CB 
     BECMG 1714/1716 27005MPS BKN030CB 
     TEMPO 1715/1718 3100 SHRA BKN020CB
       
UAUU 161700Z 23004MPS CAVOK 13/03 Q1006 NOSIG RMK QFE739/0985
TAF UAUU 161100Z 1612/1621 26006G12MPS 9999 BKN040 
     BECMG 1618/1619 30003G08MPS 
     TEMPO 1618/1621 5000 -SHRA BKN030CB
       
UASS 161300Z 31004MPS CAVOK 14/04 Q1013 R26/0///60 NOSIG RMK QFE741/0989
TAF UASS 161102Z 1612/1621 28012G17MPS 9999 BKN030CB BKN100 
     TEMPO 1612/1615 33012G17MPS
       
UAII 161700Z VRB01MPS CAVOK 21/05 Q1011 R28/0///70 NOSIG RMK QFE721/0961
TAF UAII 161700Z 1618/1718 13003G08MPS CAVOK TX32/1709Z TN14/1701Z 
     TEMPO 1618/1703 10004MPS 
     TEMPO 1706/1715 32004MPS BKN050
       
UARR 161700Z 01002MPS CAVOK 19/05 Q1009 R04/CLRD70 NOSIG RMK QFE753/1005
TAF UARR 161400Z 1615/1624 33004MPS 9999 SCT050CB 
     TEMPO 1615/1618 30005G10MPS 
     BECMG 1618/1620 VRB02MPS
       
UASK 161700Z 34002MPS 9999 SCT200 08/07 Q1015 R12/190060 NOSIG RMK QFE736/0981
TAF UASK 161403Z 1615/1624 29004MPS 9999 BKN040CB BKN100 
     TEMPO 1615/1618 23005G10MPS -SHRA 
     TEMPO 1618/1624 VRB02MPS 3000 -SHRA BR FEW004 BKN020CB
       
UAKD 161400Z 22004MPS 210V300 9999 SCT053 21/M01 Q1010 R22/0///65 NOSIG RMK QFE725/0966
TAF UAKD 161400Z 1615/1624 24005MPS 9999 SCT040 SCT100 
     TEMPO 1615/1621 VRB02MPS 
     TEMPO 1621/1624 VRB02MPS